​ ​

Форум клана ЧПУшников

Информация о пользователе

Привет, Гость! Войдите или зарегистрируйтесь.


Вы здесь » Форум клана ЧПУшников » Лазерные станки


Лазерные станки

Тем 481 страница 560 из 642

Тема Ответов Просмотров Последнее сообщение
1 284 20-07-2016 16:00:47  Maxim Korolev
6 971 19-07-2016 20:00:25  YuSTas
2 127 18-07-2016 10:25:53  byshaeva
81 2653 17-07-2016 11:06:33  Сергей Кравчик
2 271 09-07-2016 14:27:04  Killa312
11 846 07-07-2016 15:18:42  Hotory
25 776 27-06-2016 21:44:32  Salon-max
38 2173 27-06-2016 05:30:23  Юрецкий
14 473 26-06-2016 11:49:07  Quark
48 1401 24-06-2016 20:06:01  Иван1985
9 678 24-06-2016 19:54:50  Иван1985
16 715 24-06-2016 15:25:23  Sergey AA
2 132 24-06-2016 12:14:53  messer1988
8 530 22-06-2016 15:04:25  Sergey AA
8 1601 16-06-2016 22:36:09  megagad
496 Лазерное оборудование  Администратор  [ 1 2 3 ]
204 18654 12-06-2016 11:02:33  Andrey55
4 274 06-06-2016 09:19:33  Zmeei
24 1099 02-06-2016 16:29:32  Sofka
16 422 02-06-2016 09:43:13  ilcomp
3 162 31-05-2016 11:04:49  SmileCat
14 510 29-05-2016 10:38:37  Neudrums
19 1064 28-05-2016 00:03:48  Sborka
19 268 25-05-2016 12:15:46  Mikky
8 439 24-05-2016 15:31:24  sonr
21 3290 23-05-2016 23:42:46  Avel
506 Волнистый рез  angrydemon
4 288 23-05-2016 17:44:30  YuSTas
2 134 05-05-2016 11:02:05  Kuz
7 445 04-05-2016 01:16:19  snowman
10 413 28-04-2016 20:21:01  Kirian
1 169 28-04-2016 19:58:34  Kirian
37 1260 28-04-2016 14:14:04  neotex
3 805 27-04-2016 20:39:04  andrey_e
6 314 27-04-2016 16:16:09  denisej
514 Reci s2  Neudrums
35 936 26-04-2016 21:17:31  Элинка
5 515 25-04-2016 16:52:18  MPN
15 1738 23-04-2016 22:53:06  Sokrat
9 594 23-04-2016 17:45:11  Tab
35 1276 23-04-2016 13:05:00  Valera5609
18 1053 21-04-2016 12:07:58  f.laser
1 182 17-04-2016 23:10:04  megagad
521 Резка с углекислотой  Виктор Краски
23 924 17-04-2016 08:59:55  Flint2015
13 1949 15-04-2016 11:34:20  ImageLaser
11 326 11-04-2016 14:35:21  MaxMaster
13 417 09-04-2016 20:30:46  aldushin
5 295 06-04-2016 17:28:09  daguss
526 Закрыта Фото готовых работ выполненных на лазере  Администратор  [ 1 2 3  10 ]
991 99306 29-03-2016 17:50:18  sva-don
527 Закрыта Резко упала мощность  Neudrums
10 415 24-03-2016 00:59:57  Neudrums
5 525 22-03-2016 20:12:39  Дилик
529 Прошу помощи.  Назар
5 387 16-03-2016 09:51:09  Назар
8 262 14-03-2016 16:51:53  Расулыч
7 538 10-03-2016 20:36:59  chirik
5 829 07-03-2016 20:32:32  Flint2015
19 1815 04-03-2016 17:27:39  Airside
4 243 29-02-2016 22:43:44  nikson
5 193 27-02-2016 08:50:26  Flint2015
536 Тестирование размера реза  Виктор Краски
9 511 26-02-2016 16:55:55  daguss
537 кривая резка  Восходник
17 521 26-02-2016 00:06:30  semerochka
80 6873 22-02-2016 20:51:36  Kinetic
17 1092 22-02-2016 12:02:26  Kinetic
5 719 14-02-2016 15:24:59  gabber
7 643 14-02-2016 12:43:54  Zippo
12 405 12-02-2016 17:15:38  Yaroslavl
2 238 12-02-2016 10:23:44  Администратор
22 960 07-02-2016 15:27:40  Imobile
6 349 28-01-2016 17:09:21  StarPOM
25 1215 26-01-2016 15:23:58  Zippo
3 272 07-01-2016 00:45:42  okruk
4 276 05-01-2016 10:25:43  markaru
7 250 24-12-2015 12:08:34  lexus80
22 3796 21-12-2015 14:22:31  Kuz
14 434 14-12-2015 15:59:50  YuSTas
8 354 12-12-2015 20:20:10  Shamankiller
15 749 12-12-2015 18:02:39  racon75
38 1082 08-12-2015 23:46:50  asor
35 975 08-12-2015 18:35:57  dm6
8 404 07-12-2015 21:25:28  Dimon
25 942 04-12-2015 21:36:10  Silmaril
558 Лазерный станок Kamach II 1280 AS  радион рашитович
4 251 04-12-2015 20:36:20  Airside
4 318 04-12-2015 10:56:16  Drakonstar
9 703 29-11-2015 02:45:00  Лазорез

Вы здесь » Форум клана ЧПУшников » Лазерные станки